PWSweather.com
Personal Weather Stations
Station Observations
IMAZOWIE6
WarszawaPL

WarszawaPL

Lat: 52.27957, Lon: 21.05489

Elevation: 100

Station Type: WS1080

http://stacjapogody.waw.pl/

High Low Average
Temperature 88.2°F31.2°C 60.8°F16.0°C 74.4°F23.6°C
Dew Point -164.0°F-108.9°C -166.7°F-110.4°C -165.4°F-109.7°C
Winds 4.8 mph 7.7 kmh 0.6 mph 1.0 kmh 2.0 mph N3.2 kmh N
Wind Gusts 8.8 mph14.2 kmh 1.4 mph2.3 kmh 4.0 mph6.4 kmh
Humidity - - -
Pressure 29.28 in991.5 mb 29.23 in989.8 mb -
Precipitation 0.00 in0.0 mm - -
Hour Temp Dew Point Humidity Winds Wind Gusts Pressure Precip Precip Rate Daily Precip Total
12:06 AM 62.6°F17.0°C -166.5°F-110.3°C - Calm Calm 1.4 mph2.3 kmh 29.27 in991.2 mb 0.00 in0.0 mm 0.00 in0.0 mm 0.00 in0.0 mm
12:21 AM 62.2°F16.8°C -166.6°F-110.3°C - 1.4 mph N2.3 kmh N 2.8 mph4.5 kmh 29.28 in991.5 mb 0.00 in0.0 mm 0.00 in0.0 mm 0.00 in0.0 mm
12:36 AM 62.2°F16.8°C -166.6°F-110.3°C - 1.4 mph N2.3 kmh N 2.8 mph4.5 kmh 29.28 in991.5 mb 0.00 in0.0 mm 0.00 in0.0 mm 0.00 in0.0 mm
12:51 AM 62.1°F16.7°C -166.6°F-110.3°C - 1.4 mph N2.3 kmh N 2.8 mph4.5 kmh 29.27 in991.2 mb 0.00 in0.0 mm 0.00 in0.0 mm 0.00 in0.0 mm
01:06 AM 61.9°F16.6°C -166.6°F-110.3°C - 0.6 mph N1.0 kmh N 2.8 mph4.5 kmh 29.27 in991.2 mb 0.00 in0.0 mm 0.00 in0.0 mm 0.00 in0.0 mm
01:21 AM 62.1°F16.7°C -166.6°F-110.3°C - 2.0 mph N3.2 kmh N 3.4 mph5.5 kmh 29.28 in991.5 mb 0.00 in0.0 mm 0.00 in0.0 mm 0.00 in0.0 mm
01:36 AM 61.9°F16.6°C -166.6°F-110.3°C - 1.4 mph N2.3 kmh N 2.8 mph4.5 kmh 29.27 in991.2 mb 0.00 in0.0 mm 0.00 in0.0 mm 0.00 in0.0 mm
01:51 AM 61.9°F16.6°C -166.6°F-110.3°C - 2.0 mph N3.2 kmh N 4.0 mph6.4 kmh 29.27 in991.2 mb 0.00 in0.0 mm 0.00 in0.0 mm 0.00 in0.0 mm
02:06 AM 61.5°F16.4°C -166.6°F-110.3°C - 1.4 mph N2.3 kmh N 2.8 mph4.5 kmh 29.27 in991.2 mb 0.00 in0.0 mm 0.00 in0.0 mm 0.00 in0.0 mm
02:21 AM 61.7°F16.5°C -166.6°F-110.3°C - 1.4 mph N2.3 kmh N 2.8 mph4.5 kmh 29.28 in991.5 mb 0.00 in0.0 mm 0.00 in0.0 mm 0.00 in0.0 mm
02:36 AM 61.5°F16.4°C -166.6°F-110.3°C - 2.0 mph N3.2 kmh N 3.4 mph5.5 kmh 29.28 in991.5 mb 0.00 in0.0 mm 0.00 in0.0 mm 0.00 in0.0 mm
02:52 AM 61.0°F16.1°C -166.7°F-110.4°C - 0.6 mph N1.0 kmh N 1.4 mph2.3 kmh 29.26 in990.9 mb 0.00 in0.0 mm 0.00 in0.0 mm 0.00 in0.0 mm
03:06 AM 60.8°F16.0°C -166.7°F-110.4°C - 0.6 mph N1.0 kmh N 2.0 mph3.2 kmh 29.27 in991.2 mb 0.00 in0.0 mm 0.00 in0.0 mm 0.00 in0.0 mm
03:21 AM 60.8°F16.0°C -166.7°F-110.4°C - 0.6 mph N1.0 kmh N 3.4 mph5.5 kmh 29.27 in991.2 mb 0.00 in0.0 mm 0.00 in0.0 mm 0.00 in0.0 mm
03:36 AM 61.2°F16.2°C -166.7°F-110.4°C - 1.4 mph N2.3 kmh N 2.8 mph4.5 kmh 29.27 in991.2 mb 0.00 in0.0 mm 0.00 in0.0 mm 0.00 in0.0 mm
03:51 AM 63.5°F17.5°C -166.5°F-110.3°C - 0.6 mph N1.0 kmh N 2.0 mph3.2 kmh 29.28 in991.5 mb 0.00 in0.0 mm 0.00 in0.0 mm 0.00 in0.0 mm
04:06 AM 65.8°F18.8°C -166.2°F-110.1°C - 2.8 mph N4.5 kmh N 4.8 mph7.7 kmh 29.28 in991.5 mb 0.00 in0.0 mm 0.00 in0.0 mm 0.00 in0.0 mm
04:21 AM 70.0°F21.1°C -165.8°F-109.9°C - 2.8 mph N4.5 kmh N 4.8 mph7.7 kmh 29.28 in991.5 mb 0.00 in0.0 mm 0.00 in0.0 mm 0.00 in0.0 mm
04:36 AM 72.3°F22.4°C -165.6°F-109.8°C - 2.0 mph N3.2 kmh N 2.8 mph4.5 kmh 29.28 in991.5 mb 0.00 in0.0 mm 0.00 in0.0 mm 0.00 in0.0 mm
04:51 AM 74.5°F23.6°C -165.4°F-109.7°C - 2.0 mph N3.2 kmh N 2.8 mph4.5 kmh 29.28 in991.5 mb 0.00 in0.0 mm 0.00 in0.0 mm 0.00 in0.0 mm
05:06 AM 75.7°F24.3°C -165.2°F-109.6°C - 1.4 mph N2.3 kmh N 2.8 mph4.5 kmh 29.28 in991.5 mb 0.00 in0.0 mm 0.00 in0.0 mm 0.00 in0.0 mm
05:21 AM 77.2°F25.1°C -165.1°F-109.5°C - 2.0 mph N3.2 kmh N 4.8 mph7.7 kmh 29.28 in991.5 mb 0.00 in0.0 mm 0.00 in0.0 mm 0.00 in0.0 mm
05:36 AM 79.0°F26.1°C -164.9°F-109.4°C - 1.4 mph N2.3 kmh N 2.8 mph4.5 kmh 29.28 in991.5 mb 0.00 in0.0 mm 0.00 in0.0 mm 0.00 in0.0 mm
05:51 AM 80.4°F26.9°C -164.8°F-109.3°C - 0.6 mph N1.0 kmh N 2.0 mph3.2 kmh 29.28 in991.5 mb 0.00 in0.0 mm 0.00 in0.0 mm 0.00 in0.0 mm
06:06 AM 81.5°F27.5°C -164.7°F-109.3°C - 1.4 mph N2.3 kmh N 2.0 mph3.2 kmh 29.27 in991.2 mb 0.00 in0.0 mm 0.00 in0.0 mm 0.00 in0.0 mm
06:21 AM 82.9°F28.3°C -164.5°F-109.2°C - 2.0 mph N3.2 kmh N 4.0 mph6.4 kmh 29.28 in991.5 mb 0.00 in0.0 mm 0.00 in0.0 mm 0.00 in0.0 mm
06:36 AM 84.2°F29.0°C -164.4°F-109.1°C - 2.0 mph N3.2 kmh N 4.8 mph7.7 kmh 29.27 in991.2 mb 0.00 in0.0 mm 0.00 in0.0 mm 0.00 in0.0 mm
06:51 AM 83.7°F28.7°C -164.4°F-109.1°C - 1.4 mph N2.3 kmh N 2.8 mph4.5 kmh 29.27 in991.2 mb 0.00 in0.0 mm 0.00 in0.0 mm 0.00 in0.0 mm
07:06 AM 84.2°F29.0°C -164.4°F-109.1°C - 1.4 mph N2.3 kmh N 2.8 mph4.5 kmh 29.28 in991.5 mb 0.00 in0.0 mm 0.00 in0.0 mm 0.00 in0.0 mm
07:21 AM 85.8°F29.9°C -164.2°F-109.0°C - 0.6 mph N1.0 kmh N 2.8 mph4.5 kmh 29.28 in991.5 mb 0.00 in0.0 mm 0.00 in0.0 mm 0.00 in0.0 mm
07:36 AM 86.2°F30.1°C -164.2°F-109.0°C - 2.0 mph N3.2 kmh N 3.4 mph5.5 kmh 29.28 in991.5 mb 0.00 in0.0 mm 0.00 in0.0 mm 0.00 in0.0 mm
07:51 AM 87.3°F30.7°C -164.1°F-108.9°C - 2.0 mph N3.2 kmh N 4.0 mph6.4 kmh 29.28 in991.5 mb 0.00 in0.0 mm 0.00 in0.0 mm 0.00 in0.0 mm
08:06 AM 87.4°F30.8°C -164.1°F-108.9°C - 1.4 mph N2.3 kmh N 3.4 mph5.5 kmh 29.28 in991.5 mb 0.00 in0.0 mm 0.00 in0.0 mm 0.00 in0.0 mm
08:21 AM 88.2°F31.2°C -164.0°F-108.9°C - 2.8 mph N4.5 kmh N 6.2 mph10.0 kmh 29.27 in991.2 mb 0.00 in0.0 mm 0.00 in0.0 mm 0.00 in0.0 mm
08:36 AM 86.9°F30.5°C -164.1°F-108.9°C - 2.8 mph N4.5 kmh N 5.4 mph8.7 kmh 29.27 in991.2 mb 0.00 in0.0 mm 0.00 in0.0 mm 0.00 in0.0 mm
08:51 AM 86.7°F30.4°C -164.1°F-108.9°C - 2.0 mph N3.2 kmh N 3.4 mph5.5 kmh 29.27 in991.2 mb 0.00 in0.0 mm 0.00 in0.0 mm 0.00 in0.0 mm
09:06 AM 87.3°F30.7°C -164.1°F-108.9°C - 2.0 mph N3.2 kmh N 4.0 mph6.4 kmh 29.26 in990.9 mb 0.00 in0.0 mm 0.00 in0.0 mm 0.00 in0.0 mm
09:21 AM 86.4°F30.2°C -164.2°F-109.0°C - 2.8 mph N4.5 kmh N 6.8 mph10.9 kmh 29.26 in990.9 mb 0.00 in0.0 mm 0.00 in0.0 mm 0.00 in0.0 mm
09:36 AM 86.7°F30.4°C -164.1°F-108.9°C - 1.4 mph N2.3 kmh N 4.0 mph6.4 kmh 29.26 in990.9 mb 0.00 in0.0 mm 0.00 in0.0 mm 0.00 in0.0 mm
09:51 AM 85.5°F29.7°C -164.3°F-109.1°C - 0.6 mph N1.0 kmh N 2.0 mph3.2 kmh 29.26 in990.9 mb 0.00 in0.0 mm 0.00 in0.0 mm 0.00 in0.0 mm
10:06 AM 83.3°F28.5°C -164.5°F-109.2°C - 2.8 mph N4.5 kmh N 5.4 mph8.7 kmh 29.26 in990.9 mb 0.00 in0.0 mm 0.00 in0.0 mm 0.00 in0.0 mm
10:21 AM 81.5°F27.5°C -164.7°F-109.3°C - 3.4 mph N5.5 kmh N 6.8 mph10.9 kmh 29.25 in990.5 mb 0.00 in0.0 mm 0.00 in0.0 mm 0.00 in0.0 mm
10:36 AM 83.7°F28.7°C -164.4°F-109.1°C - 1.4 mph N2.3 kmh N 4.0 mph6.4 kmh 29.25 in990.5 mb 0.00 in0.0 mm 0.00 in0.0 mm 0.00 in0.0 mm
10:51 AM 82.6°F28.1°C -164.5°F-109.2°C - 2.0 mph N3.2 kmh N 5.4 mph8.7 kmh 29.25 in990.5 mb 0.00 in0.0 mm 0.00 in0.0 mm 0.00 in0.0 mm
11:06 AM 79.9°F26.6°C -164.8°F-109.3°C - 2.8 mph N4.5 kmh N 6.2 mph10.0 kmh 29.24 in990.2 mb 0.00 in0.0 mm 0.00 in0.0 mm 0.00 in0.0 mm
11:21 AM 79.0°F26.1°C -164.9°F-109.4°C - 4.0 mph N6.4 kmh N 8.8 mph14.2 kmh 29.24 in990.2 mb 0.00 in0.0 mm 0.00 in0.0 mm 0.00 in0.0 mm
11:36 AM 79.5°F26.4°C -164.8°F-109.3°C - 2.0 mph N3.2 kmh N 5.4 mph8.7 kmh 29.24 in990.2 mb 0.00 in0.0 mm 0.00 in0.0 mm 0.00 in0.0 mm
11:51 AM 80.1°F26.7°C -164.8°F-109.3°C - 2.0 mph N3.2 kmh N 5.4 mph8.7 kmh 29.24 in990.2 mb 0.00 in0.0 mm 0.00 in0.0 mm 0.00 in0.0 mm
12:06 PM 80.2°F26.8°C -164.8°F-109.3°C - 1.4 mph N2.3 kmh N 4.8 mph7.7 kmh 29.24 in990.2 mb 0.00 in0.0 mm 0.00 in0.0 mm 0.00 in0.0 mm
12:21 PM 79.7°F26.5°C -164.8°F-109.3°C - 0.6 mph N1.0 kmh N 3.4 mph5.5 kmh 29.24 in990.2 mb 0.00 in0.0 mm 0.00 in0.0 mm 0.00 in0.0 mm
12:36 PM 78.1°F25.6°C -165.0°F-109.4°C - 4.0 mph N6.4 kmh N 7.4 mph11.9 kmh 29.24 in990.2 mb 0.00 in0.0 mm 0.00 in0.0 mm 0.00 in0.0 mm
12:51 PM 79.0°F26.1°C -164.9°F-109.4°C - 2.0 mph N3.2 kmh N 5.4 mph8.7 kmh 29.24 in990.2 mb 0.00 in0.0 mm 0.00 in0.0 mm 0.00 in0.0 mm
01:06 PM 79.5°F26.4°C -164.8°F-109.3°C - 4.0 mph N6.4 kmh N 6.8 mph10.9 kmh 29.24 in990.2 mb 0.00 in0.0 mm 0.00 in0.0 mm 0.00 in0.0 mm
01:21 PM 79.0°F26.1°C -164.9°F-109.4°C - 1.4 mph N2.3 kmh N 3.4 mph5.5 kmh 29.24 in990.2 mb 0.00 in0.0 mm 0.00 in0.0 mm 0.00 in0.0 mm
01:36 PM 79.7°F26.5°C -164.8°F-109.3°C - 2.0 mph N3.2 kmh N 4.8 mph7.7 kmh 29.23 in989.8 mb 0.00 in0.0 mm 0.00 in0.0 mm 0.00 in0.0 mm
01:51 PM 80.1°F26.7°C -164.8°F-109.3°C - 3.4 mph N5.5 kmh N 4.8 mph7.7 kmh 29.23 in989.8 mb 0.00 in0.0 mm 0.00 in0.0 mm 0.00 in0.0 mm
02:06 PM 80.2°F26.8°C -164.8°F-109.3°C - 1.4 mph N2.3 kmh N 3.4 mph5.5 kmh 29.23 in989.8 mb 0.00 in0.0 mm 0.00 in0.0 mm 0.00 in0.0 mm
02:21 PM 78.6°F25.9°C -164.9°F-109.4°C - 1.4 mph N2.3 kmh N 3.4 mph5.5 kmh 29.23 in989.8 mb 0.00 in0.0 mm 0.00 in0.0 mm 0.00 in0.0 mm
02:36 PM 77.2°F25.1°C -165.1°F-109.5°C - 2.8 mph N4.5 kmh N 4.8 mph7.7 kmh 29.23 in989.8 mb 0.00 in0.0 mm 0.00 in0.0 mm 0.00 in0.0 mm
02:51 PM 77.4°F25.2°C -165.1°F-109.5°C - 2.8 mph N4.5 kmh N 4.8 mph7.7 kmh 29.24 in990.2 mb 0.00 in0.0 mm 0.00 in0.0 mm 0.00 in0.0 mm
03:06 PM 78.8°F26.0°C -164.9°F-109.4°C - 3.4 mph N5.5 kmh N 6.8 mph10.9 kmh 29.24 in990.2 mb 0.00 in0.0 mm 0.00 in0.0 mm 0.00 in0.0 mm
03:21 PM 79.3°F26.3°C -164.9°F-109.4°C - 3.4 mph N5.5 kmh N 6.2 mph10.0 kmh 29.24 in990.2 mb 0.00 in0.0 mm 0.00 in0.0 mm 0.00 in0.0 mm
03:36 PM 78.1°F25.6°C -165.0°F-109.4°C - 4.8 mph N7.7 kmh N 8.8 mph14.2 kmh 29.23 in989.8 mb 0.00 in0.0 mm 0.00 in0.0 mm 0.00 in0.0 mm
03:51 PM 78.1°F25.6°C -165.0°F-109.4°C - 1.4 mph N2.3 kmh N 4.0 mph6.4 kmh 29.24 in990.2 mb 0.00 in0.0 mm 0.00 in0.0 mm 0.00 in0.0 mm
04:06 PM 77.7°F25.4°C -165.0°F-109.4°C - 3.4 mph N5.5 kmh N 5.4 mph8.7 kmh 29.24 in990.2 mb 0.00 in0.0 mm 0.00 in0.0 mm 0.00 in0.0 mm
04:21 PM 77.5°F25.3°C -165.0°F-109.4°C - 2.8 mph N4.5 kmh N 6.2 mph10.0 kmh 29.24 in990.2 mb 0.00 in0.0 mm 0.00 in0.0 mm 0.00 in0.0 mm
04:36 PM 77.2°F25.1°C -165.1°F-109.5°C - 2.0 mph N3.2 kmh N 4.0 mph6.4 kmh 29.24 in990.2 mb 0.00 in0.0 mm 0.00 in0.0 mm 0.00 in0.0 mm
04:51 PM 77.0°F25.0°C -165.1°F-109.5°C - 2.8 mph N4.5 kmh N 5.4 mph8.7 kmh 29.24 in990.2 mb 0.00 in0.0 mm 0.00 in0.0 mm 0.00 in0.0 mm
05:06 PM 76.6°F24.8°C -165.1°F-109.5°C - 2.0 mph N3.2 kmh N 3.4 mph5.5 kmh 29.24 in990.2 mb 0.00 in0.0 mm 0.00 in0.0 mm 0.00 in0.0 mm
05:21 PM 75.9°F24.4°C -165.2°F-109.6°C - 2.8 mph N4.5 kmh N 6.8 mph10.9 kmh 29.24 in990.2 mb 0.00 in0.0 mm 0.00 in0.0 mm 0.00 in0.0 mm
05:36 PM 75.4°F24.1°C -165.3°F-109.6°C - 2.0 mph N3.2 kmh N 3.4 mph5.5 kmh 29.25 in990.5 mb 0.00 in0.0 mm 0.00 in0.0 mm 0.00 in0.0 mm
05:51 PM 74.5°F23.6°C -165.4°F-109.7°C - 2.8 mph N4.5 kmh N 4.8 mph7.7 kmh 29.24 in990.2 mb 0.00 in0.0 mm 0.00 in0.0 mm 0.00 in0.0 mm
06:06 PM 74.1°F23.4°C -165.4°F-109.7°C - 2.0 mph N3.2 kmh N 4.0 mph6.4 kmh 29.25 in990.5 mb 0.00 in0.0 mm 0.00 in0.0 mm 0.00 in0.0 mm
06:21 PM 73.0°F22.8°C -165.5°F-109.7°C - 2.8 mph N4.5 kmh N 5.4 mph8.7 kmh 29.24 in990.2 mb 0.00 in0.0 mm 0.00 in0.0 mm 0.00 in0.0 mm
06:36 PM 72.3°F22.4°C -165.6°F-109.8°C - 2.8 mph N4.5 kmh N 4.8 mph7.7 kmh 29.24 in990.2 mb 0.00 in0.0 mm 0.00 in0.0 mm 0.00 in0.0 mm
06:51 PM 72.0°F22.2°C -165.6°F-109.8°C - 3.4 mph N5.5 kmh N 6.2 mph10.0 kmh 29.25 in990.5 mb 0.00 in0.0 mm 0.00 in0.0 mm 0.00 in0.0 mm
07:06 PM 71.6°F22.0°C -165.6°F-109.8°C - 2.0 mph N3.2 kmh N 4.8 mph7.7 kmh 29.26 in990.9 mb 0.00 in0.0 mm 0.00 in0.0 mm 0.00 in0.0 mm
07:21 PM 71.2°F21.8°C -165.7°F-109.8°C - 1.4 mph N2.3 kmh N 4.0 mph6.4 kmh 29.26 in990.9 mb 0.00 in0.0 mm 0.00 in0.0 mm 0.00 in0.0 mm
07:36 PM 70.7°F21.5°C -165.7°F-109.8°C - 2.8 mph N4.5 kmh N 5.4 mph8.7 kmh 29.26 in990.9 mb 0.00 in0.0 mm 0.00 in0.0 mm 0.00 in0.0 mm
07:51 PM 70.0°F21.1°C -165.8°F-109.9°C - 2.8 mph N4.5 kmh N 4.8 mph7.7 kmh 29.26 in990.9 mb 0.01 in0.3 mm 0.05 in1.3 mm 0.01 in0.3 mm
08:06 PM 68.5°F20.3°C -165.9°F-109.9°C - 0.6 mph N1.0 kmh N 2.8 mph4.5 kmh 29.28 in991.5 mb 0.01 in0.3 mm 0.00 in0.0 mm 0.01 in0.3 mm
08:21 PM 66.4°F19.1°C -166.2°F-110.1°C - 0.6 mph N1.0 kmh N 2.8 mph4.5 kmh 29.28 in991.5 mb 0.00 in0.0 mm 0.00 in0.0 mm 0.01 in0.3 mm
08:36 PM 65.8°F18.8°C -166.2°F-110.1°C - 1.4 mph N2.3 kmh N 3.4 mph5.5 kmh 29.28 in991.5 mb 0.00 in0.0 mm 0.00 in0.0 mm 0.01 in0.3 mm
08:51 PM 65.3°F18.5°C -166.3°F-110.2°C - 1.4 mph N2.3 kmh N 3.4 mph5.5 kmh 29.28 in991.5 mb 0.00 in0.0 mm 0.00 in0.0 mm 0.01 in0.3 mm
09:06 PM 65.1°F18.4°C -166.3°F-110.2°C - 2.8 mph N4.5 kmh N 5.4 mph8.7 kmh 29.28 in991.5 mb 0.00 in0.0 mm 0.00 in0.0 mm 0.01 in0.3 mm
09:21 PM 65.3°F18.5°C -166.3°F-110.2°C - 2.0 mph N3.2 kmh N 4.0 mph6.4 kmh 29.28 in991.5 mb 0.00 in0.0 mm 0.00 in0.0 mm 0.01 in0.3 mm
09:36 PM 65.3°F18.5°C -166.3°F-110.2°C - 1.4 mph N2.3 kmh N 3.4 mph5.5 kmh 29.28 in991.5 mb 0.00 in0.0 mm 0.00 in0.0 mm 0.01 in0.3 mm
09:51 PM 64.8°F18.2°C -166.3°F-110.2°C - 1.4 mph N2.3 kmh N 2.8 mph4.5 kmh 29.27 in991.2 mb 0.00 in0.0 mm 0.00 in0.0 mm 0.01 in0.3 mm
10:06 PM 64.6°F18.1°C -166.3°F-110.2°C - 2.0 mph N3.2 kmh N 3.4 mph5.5 kmh 29.28 in991.5 mb 0.00 in0.0 mm 0.00 in0.0 mm 0.01 in0.3 mm
10:21 PM 64.4°F18.0°C -166.4°F-110.2°C - 0.6 mph N1.0 kmh N 3.4 mph5.5 kmh 29.28 in991.5 mb 0.00 in0.0 mm 0.00 in0.0 mm 0.01 in0.3 mm
10:36 PM 64.8°F18.2°C -166.3°F-110.2°C - 2.0 mph N3.2 kmh N 4.0 mph6.4 kmh 29.27 in991.2 mb 0.00 in0.0 mm 0.00 in0.0 mm 0.01 in0.3 mm
10:51 PM 64.9°F18.3°C -166.3°F-110.2°C - 2.8 mph N4.5 kmh N 6.2 mph10.0 kmh 29.27 in991.2 mb 0.00 in0.0 mm 0.00 in0.0 mm 0.01 in0.3 mm
11:06 PM 64.9°F18.3°C -166.3°F-110.2°C - 2.0 mph N3.2 kmh N 4.8 mph7.7 kmh 29.27 in991.2 mb 0.00 in0.0 mm 0.00 in0.0 mm 0.01 in0.3 mm
11:21 PM 64.9°F18.3°C -166.3°F-110.2°C - 3.4 mph N5.5 kmh N 7.4 mph11.9 kmh 29.26 in990.9 mb 0.00 in0.0 mm 0.00 in0.0 mm 0.01 in0.3 mm
11:36 PM 64.8°F18.2°C -166.3°F-110.2°C - 2.8 mph N4.5 kmh N 6.8 mph10.9 kmh 29.26 in990.9 mb 0.00 in0.0 mm 0.00 in0.0 mm 0.01 in0.3 mm
11:51 PM 64.6°F18.1°C -166.3°F-110.2°C - 4.0 mph N6.4 kmh N 8.2 mph13.2 kmh 29.26 in990.9 mb 0.00 in0.0 mm 0.00 in0.0 mm 0.01 in0.3 mm